createdAt,value
2018-08-25T00:02:51.387Z,51.05
2018-08-25T00:05:54.395Z,50.24
2018-08-25T00:08:57.483Z,50.26
2018-08-25T00:12:00.523Z,50.23
2018-08-25T00:15:03.810Z,50.37
2018-08-25T00:18:08.798Z,51.58
2018-08-25T00:21:11.885Z,51.13
2018-08-25T00:24:14.927Z,50.43
2018-08-25T00:27:17.997Z,51.49
2018-08-25T00:30:26.679Z,50.96
2018-08-25T00:33:29.718Z,49.66
2018-08-25T00:36:33.246Z,50.61
2018-08-25T00:39:36.277Z,50.73
2018-08-25T00:42:39.411Z,51.52
2018-08-25T00:45:42.527Z,50.99
2018-08-25T00:48:45.613Z,50.55
2018-08-25T00:51:48.650Z,51.23
2018-08-25T00:54:51.725Z,50.68
2018-08-25T00:57:54.830Z,51.56
2018-08-25T01:00:57.913Z,50.98
2018-08-25T01:04:00.971Z,51.78
2018-08-25T01:07:04.482Z,50.79
2018-08-25T01:10:07.613Z,51.16
2018-08-25T01:13:10.861Z,51.78
2018-08-25T01:16:13.900Z,52.07
2018-08-25T01:19:17.037Z,52.04
2018-08-25T01:22:20.198Z,52.21
2018-08-25T01:25:23.278Z,52.79
2018-08-25T01:28:26.368Z,50.98
2018-08-25T01:31:29.534Z,51.32
2018-08-25T01:34:32.519Z,51.79
2018-08-25T01:37:35.517Z,51.73
2018-08-25T01:40:38.502Z,50.71
2018-08-25T01:43:41.621Z,52.23
2018-08-25T01:46:51.401Z,52.34
2018-08-25T01:49:54.419Z,51.18
2018-08-25T01:52:57.498Z,51.87
2018-08-25T01:56:00.538Z,52.81
2018-08-25T01:59:03.619Z,53.75
2018-08-25T02:02:06.693Z,51.54
2018-08-25T02:05:09.684Z,51.74
2018-08-25T02:08:12.825Z,52.46
2018-08-25T02:11:15.898Z,52.87
2018-08-25T02:14:18.936Z,52.47
2018-08-25T02:17:21.994Z,53.07
2018-08-25T02:20:25.258Z,52.46
2018-08-25T02:23:28.423Z,53.14
2018-08-25T02:26:31.515Z,52.83
2018-08-25T02:29:34.587Z,52.10
2018-08-25T02:32:37.694Z,51.92
2018-08-25T02:35:40.835Z,53.38
2018-08-25T02:38:43.880Z,51.86
2018-08-25T02:41:46.901Z,52.59
2018-08-25T02:44:49.969Z,52.89
2018-08-25T02:47:53.830Z,53.03
2018-08-25T02:50:56.827Z,52.56
2018-08-25T02:53:59.906Z,52.43
2018-08-25T02:57:02.987Z,53.14
2018-08-25T03:00:06.128Z,56.86
2018-08-25T03:03:09.225Z,59.74
2018-08-25T03:06:19.635Z,58.88
2018-08-25T03:09:30.295Z,60.66
2018-08-25T03:12:33.552Z,62.42
2018-08-25T03:15:36.598Z,62.79
2018-08-25T03:18:40.894Z,63.46
2018-08-25T03:21:44.445Z,64.09
2018-08-25T03:26:07.432Z,63.64
2018-08-25T03:29:30.741Z,62.72
2018-08-25T03:32:34.092Z,62.42
2018-08-25T03:35:58.056Z,59.54
2018-08-25T03:39:01.646Z,61.82
2018-08-25T03:42:07.785Z,58.79
2018-08-25T03:45:10.971Z,62.74
2018-08-25T03:51:55.441Z,64.56
2018-08-25T03:54:59.674Z,64.49
2018-08-25T03:58:04.287Z,68.14
2018-08-25T04:01:09.271Z,70.47
2018-08-25T04:04:12.436Z,71.83
2018-08-25T04:07:15.558Z,71.76
2018-08-25T04:10:18.707Z,76.08
2018-08-25T04:13:21.786Z,77.92
2018-08-25T04:16:24.833Z,77.86
2018-08-25T04:19:28.102Z,78.13
2018-08-25T04:22:31.232Z,78.22
2018-08-25T04:25:34.421Z,77.03
2018-08-25T04:28:37.518Z,77.36
2018-08-25T04:31:40.672Z,77.11
2018-08-25T04:34:43.883Z,74.74
2018-08-25T04:37:46.986Z,77.19
2018-08-25T04:40:50.077Z,77.99
2018-08-25T04:43:53.150Z,79.78
2018-08-25T04:46:56.271Z,79.48
2018-08-25T04:49:59.346Z,78.48
2018-08-25T04:53:02.655Z,78.80
2018-08-25T04:56:05.799Z,76.50
2018-08-25T04:59:08.857Z,78.25
2018-08-25T05:02:11.994Z,79.04
2018-08-25T05:05:15.105Z,77.40
2018-08-25T05:08:18.252Z,75.05
2018-08-25T05:11:21.277Z,74.98
2018-08-25T05:14:24.470Z,77.29
2018-08-25T05:17:27.696Z,77.86
2018-08-25T05:20:31.723Z,76.70
2018-08-25T05:23:34.837Z,78.55
2018-08-25T05:26:38.023Z,80.13
2018-08-25T05:29:41.202Z,78.29
2018-08-25T05:32:44.346Z,80.65
2018-08-25T05:35:48.078Z,79.73
2018-08-25T05:38:51.325Z,79.77
2018-08-25T05:41:55.818Z,81.36
2018-08-25T05:44:58.951Z,80.96
2018-08-25T05:48:02.192Z,80.44
2018-08-25T05:51:05.714Z,78.39
2018-08-25T05:54:08.810Z,79.00
2018-08-25T05:57:14.842Z,80.99
2018-08-25T06:00:18.154Z,80.41
2018-08-25T06:03:21.267Z,78.91
2018-08-25T06:06:24.428Z,80.40
2018-08-25T06:09:27.836Z,78.44
2018-08-25T06:12:30.981Z,79.95
2018-08-25T06:15:36.851Z,79.62
2018-08-25T06:18:40.009Z,81.16
2018-08-25T06:21:43.098Z,80.21
2018-08-25T06:24:46.184Z,79.91
2018-08-25T06:27:49.286Z,78.03
2018-08-25T06:30:52.477Z,78.14
2018-08-25T06:33:55.671Z,78.18
2018-08-25T06:36:58.735Z,80.19
2018-08-25T06:40:01.862Z,80.53
2018-08-25T06:43:05.170Z,78.33
2018-08-25T06:46:09.066Z,79.15
2018-08-25T06:49:12.136Z,80.84
2018-08-25T06:52:15.137Z,79.67
2018-08-25T06:55:18.228Z,77.86
2018-08-25T06:58:21.300Z,78.78
2018-08-25T07:01:24.320Z,77.27
2018-08-25T07:04:27.433Z,77.20
2018-08-25T07:07:30.644Z,78.29
2018-08-25T07:10:34.346Z,78.35
2018-08-25T07:13:38.594Z,76.38
2018-08-25T07:16:41.730Z,78.96
2018-08-25T07:19:44.982Z,77.36
2018-08-25T07:22:48.159Z,75.82
2018-08-25T07:25:51.339Z,76.36
2018-08-25T07:28:54.377Z,76.71
2018-08-25T07:31:57.715Z,74.50
2018-08-25T07:35:00.810Z,75.37
2018-08-25T07:38:04.034Z,74.64
2018-08-25T07:41:07.094Z,75.92
2018-08-25T07:44:10.189Z,75.46
2018-08-25T07:47:13.294Z,74.72
2018-08-25T07:50:16.370Z,75.28
2018-08-25T07:53:19.490Z,75.35
2018-08-25T07:56:22.533Z,75.80
2018-08-25T07:59:25.597Z,75.96
2018-08-25T08:02:28.701Z,76.76
2018-08-25T08:05:31.864Z,76.88
2018-08-25T08:08:35.009Z,75.50
2018-08-25T08:11:38.187Z,74.57
2018-08-25T08:15:43.933Z,75.69
2018-08-25T08:18:47.086Z,76.53
2018-08-25T08:21:56.779Z,74.80
2018-08-25T08:24:59.938Z,73.57
2018-08-25T08:28:03.055Z,72.32
2018-08-25T08:31:06.141Z,71.60
2018-08-25T08:34:09.341Z,70.94
2018-08-25T08:37:12.378Z,69.38
2018-08-25T08:40:15.553Z,69.59
2018-08-25T08:43:19.342Z,70.11
2018-08-25T08:46:28.008Z,69.54
2018-08-25T08:49:31.018Z,67.67
2018-08-25T08:52:34.054Z,70.17
2018-08-25T08:55:37.084Z,67.78
2018-08-25T09:02:11.929Z,67.73
2018-08-25T09:05:15.023Z,67.18
2018-08-25T09:08:18.201Z,66.88
2018-08-25T09:11:21.213Z,68.29
2018-08-25T09:14:24.426Z,65.58
2018-08-25T09:17:27.506Z,67.82
2018-08-25T09:20:30.612Z,68.77
2018-08-25T09:23:33.686Z,68.49
2018-08-25T09:26:36.751Z,69.23
2018-08-25T09:29:39.853Z,68.53
2018-08-25T09:32:42.951Z,68.81
2018-08-25T09:35:46.085Z,69.23
2018-08-25T09:38:49.427Z,68.94
2018-08-25T09:41:52.668Z,69.35
2018-08-25T09:44:55.679Z,68.48
2018-08-25T09:47:58.741Z,69.41
2018-08-25T09:51:01.791Z,69.18
2018-08-25T09:54:04.935Z,66.82
2018-08-25T09:57:08.104Z,66.04
2018-08-25T10:00:11.278Z,66.94
2018-08-25T10:03:14.352Z,65.89
2018-08-25T10:06:17.449Z,64.72
2018-08-25T10:09:20.506Z,66.40
2018-08-25T10:12:23.670Z,63.88
2018-08-25T10:15:26.810Z,63.30
2018-08-25T10:18:30.071Z,62.08
2018-08-25T10:21:33.184Z,62.19
2018-08-25T10:24:36.170Z,60.84
2018-08-25T10:27:39.291Z,60.06
2018-08-25T10:30:42.385Z,61.85
2018-08-25T10:33:45.410Z,59.37
2018-08-25T10:36:48.502Z,60.31
2018-08-25T10:39:51.560Z,62.67
2018-08-25T10:42:55.068Z,61.68
2018-08-25T10:45:58.109Z,61.19
2018-08-25T10:49:01.185Z,61.16
2018-08-25T10:52:04.354Z,60.64
2018-08-25T10:55:07.427Z,59.61
2018-08-25T10:58:10.545Z,60.31
2018-08-25T11:01:13.728Z,58.75
2018-08-25T11:04:17.437Z,58.67
2018-08-25T11:07:21.790Z,59.52
2018-08-25T11:10:25.060Z,59.98
2018-08-25T11:13:28.442Z,61.46
2018-08-25T11:16:31.905Z,59.37
2018-08-25T11:19:35.392Z,60.92
2018-08-25T11:22:41.687Z,59.52
2018-08-25T11:25:44.934Z,57.34
2018-08-25T11:28:48.084Z,60.77
2018-08-25T11:31:51.110Z,59.17
2018-08-25T11:34:54.143Z,59.59
2018-08-25T11:37:57.178Z,60.97
2018-08-25T11:41:00.199Z,60.73
2018-08-25T11:44:03.336Z,61.00
2018-08-25T11:47:12.106Z,61.46
2018-08-25T11:50:15.147Z,63.46
2018-08-25T11:53:18.158Z,64.90
2018-08-25T11:56:21.342Z,65.75
2018-08-25T11:59:24.479Z,68.77
2018-08-25T12:02:28.399Z,68.53
2018-08-25T12:05:31.494Z,70.31
2018-08-25T12:08:34.584Z,68.57
2018-08-25T12:11:37.672Z,66.46
2018-08-25T12:14:40.782Z,65.49
2018-08-25T12:17:43.914Z,65.87
2018-08-25T12:20:47.072Z,65.36
2018-08-25T12:23:50.243Z,63.76
2018-08-25T12:26:54.322Z,61.65
2018-08-25T12:29:57.448Z,61.49
2018-08-25T12:33:00.619Z,60.17
2018-08-25T12:36:03.842Z,57.82
2018-08-25T12:39:09.448Z,57.96
2018-08-25T12:42:12.450Z,58.04
2018-08-25T12:45:15.587Z,57.76
2018-08-25T12:48:18.614Z,57.23
2018-08-25T12:51:21.678Z,55.17
2018-08-25T12:54:24.711Z,54.63
2018-08-25T12:57:27.782Z,52.54
2018-08-25T13:00:30.867Z,52.88
2018-08-25T13:03:34.011Z,50.60
2018-08-25T13:06:37.088Z,46.82
2018-08-25T13:09:40.178Z,45.23
2018-08-25T13:12:43.236Z,45.12
2018-08-25T13:15:46.301Z,44.78
2018-08-25T13:18:49.459Z,45.72
2018-08-25T13:21:52.612Z,45.88
2018-08-25T13:24:55.778Z,47.88
2018-08-25T13:27:58.870Z,47.44
2018-08-25T13:31:02.077Z,48.79
2018-08-25T13:34:05.374Z,49.50
2018-08-25T13:37:08.508Z,47.20
2018-08-25T13:40:11.687Z,48.47
2018-08-25T13:43:14.737Z,48.05
2018-08-25T13:46:17.874Z,45.66
2018-08-25T13:49:21.058Z,46.68
2018-08-25T13:52:24.247Z,45.22
2018-08-25T13:55:27.427Z,44.41
2018-08-25T13:58:30.509Z,45.21
2018-08-25T14:01:33.664Z,44.42
2018-08-25T14:04:36.703Z,44.96
2018-08-25T14:07:39.782Z,45.19
2018-08-25T14:10:42.892Z,46.26
2018-08-25T14:13:45.978Z,46.83
2018-08-25T14:16:49.088Z,49.43
2018-08-25T14:19:52.166Z,51.14
2018-08-25T14:22:55.787Z,53.86
2018-08-25T14:25:58.881Z,57.55
2018-08-25T14:29:02.007Z,58.18
2018-08-25T14:32:05.112Z,57.83
2018-08-25T14:35:08.269Z,58.03
2018-08-25T14:38:11.329Z,58.91
2018-08-25T14:41:14.450Z,58.20
2018-08-25T14:44:17.593Z,58.65
2018-08-25T14:47:20.747Z,56.39
2018-08-25T14:50:23.797Z,54.74
2018-08-25T14:53:26.989Z,51.60
2018-08-25T14:56:30.043Z,54.12
2018-08-25T14:59:33.195Z,54.15
2018-08-25T15:02:36.631Z,55.96
2018-08-25T15:05:40.015Z,55.10
2018-08-25T15:08:44.418Z,54.10
2018-08-25T15:11:48.415Z,52.11
2018-08-25T15:14:52.438Z,51.02
2018-08-25T15:17:56.304Z,51.27
2018-08-25T15:20:59.449Z,48.17
2018-08-25T15:24:02.711Z,45.15
2018-08-25T15:27:06.007Z,46.12
2018-08-25T15:30:09.449Z,43.99
2018-08-25T15:33:12.951Z,44.08
2018-08-25T15:36:16.142Z,46.67
2018-08-25T15:39:19.240Z,46.08
2018-08-25T15:42:22.319Z,47.49
2018-08-25T15:45:25.460Z,48.20
2018-08-25T15:48:28.626Z,48.99
2018-08-25T15:51:31.795Z,47.60
2018-08-25T15:54:34.917Z,49.71
2018-08-25T15:57:38.074Z,49.64
2018-08-25T16:00:41.218Z,49.63
2018-08-25T16:03:44.334Z,49.62
2018-08-25T16:06:47.340Z,52.16
2018-08-25T16:09:50.486Z,50.07
2018-08-25T16:12:53.631Z,50.86
2018-08-25T16:15:56.686Z,51.65
2018-08-25T16:18:59.767Z,51.04
2018-08-25T16:22:02.843Z,50.63
2018-08-25T16:25:06.303Z,51.76
2018-08-25T16:28:09.401Z,52.00
2018-08-25T16:31:12.538Z,51.41
2018-08-25T16:34:15.673Z,51.42
2018-08-25T16:37:18.766Z,53.01
2018-08-25T16:40:21.884Z,54.51
2018-08-25T16:43:24.978Z,53.78
2018-08-25T16:46:28.000Z,52.74
2018-08-25T16:49:31.228Z,53.47
2018-08-25T16:52:34.240Z,54.34
2018-08-25T16:55:37.363Z,53.46
2018-08-25T16:58:40.531Z,53.43
2018-08-25T17:01:43.737Z,53.76
2018-08-25T17:04:46.825Z,52.62
2018-08-25T17:07:49.938Z,53.55
2018-08-25T17:10:53.026Z,55.05
2018-08-25T17:13:56.067Z,55.49
2018-08-25T17:16:59.108Z,55.17
2018-08-25T17:20:02.246Z,54.90
2018-08-25T17:23:05.271Z,55.97
2018-08-25T17:26:08.311Z,55.89
2018-08-25T17:29:11.449Z,56.71
2018-08-25T17:32:14.561Z,56.22
2018-08-25T17:35:17.646Z,55.62
2018-08-25T17:38:20.819Z,56.13
2018-08-25T17:41:23.859Z,55.38
2018-08-25T17:44:26.991Z,55.34
2018-08-25T17:47:33.034Z,55.64
2018-08-25T17:50:36.112Z,56.98
2018-08-25T17:53:39.173Z,57.43
2018-08-25T17:56:42.294Z,56.65
2018-08-25T17:59:45.392Z,56.96
2018-08-25T18:02:48.536Z,55.77
2018-08-25T18:05:51.657Z,54.27
2018-08-25T18:08:54.737Z,55.28
2018-08-25T18:11:57.836Z,55.39
2018-08-25T18:15:00.899Z,55.53
2018-08-25T18:18:03.977Z,55.94
2018-08-25T18:21:07.086Z,57.21
2018-08-25T18:24:10.169Z,56.70
2018-08-25T18:27:13.243Z,56.80
2018-08-25T18:30:16.333Z,57.92
2018-08-25T18:33:19.497Z,57.89
2018-08-25T18:36:22.618Z,58.21
2018-08-25T18:39:25.719Z,58.09
2018-08-25T18:42:28.802Z,58.60
2018-08-25T18:45:31.918Z,58.22
2018-08-25T18:48:35.042Z,57.78
2018-08-25T18:51:38.195Z,56.77
2018-08-25T18:54:41.469Z,56.73
2018-08-25T18:57:44.455Z,56.66
2018-08-25T19:00:47.501Z,56.69
2018-08-25T19:03:50.642Z,57.44
2018-08-25T19:06:53.726Z,58.15
2018-08-25T19:09:56.792Z,58.86
2018-08-25T19:12:59.843Z,58.01
2018-08-25T19:16:03.037Z,58.25
2018-08-25T19:19:06.238Z,57.87
2018-08-25T19:22:09.828Z,57.45
2018-08-25T19:25:12.868Z,56.74
2018-08-25T19:28:15.925Z,56.41
2018-08-25T19:31:19.018Z,57.27
2018-08-25T19:34:22.090Z,57.17
2018-08-25T19:37:25.202Z,57.30
2018-08-25T19:40:28.262Z,58.12
2018-08-25T19:43:31.299Z,56.48
2018-08-25T19:46:34.479Z,55.39
2018-08-25T19:49:37.618Z,55.91
2018-08-25T19:52:40.738Z,56.34
2018-08-25T19:55:43.812Z,57.20
2018-08-25T19:58:46.906Z,57.64
2018-08-25T20:01:49.959Z,57.62
2018-08-25T20:04:53.029Z,56.53
2018-08-25T20:07:56.068Z,56.28
2018-08-25T20:10:59.119Z,56.17
2018-08-25T20:14:02.208Z,57.43
2018-08-25T20:17:05.340Z,56.81
2018-08-25T20:20:08.409Z,56.20
2018-08-25T20:23:11.502Z,57.32
2018-08-25T20:26:14.598Z,58.57
2018-08-25T20:29:17.663Z,58.37
2018-08-25T20:32:20.725Z,59.59
2018-08-25T20:35:24.262Z,58.34
2018-08-25T20:38:27.518Z,58.08
2018-08-25T20:41:31.230Z,58.23
2018-08-25T20:44:34.553Z,57.27
2018-08-25T20:47:38.083Z,59.21
2018-08-25T20:50:41.603Z,58.83
2018-08-25T20:53:44.719Z,59.92
2018-08-25T20:56:48.166Z,60.65
2018-08-25T20:59:51.395Z,60.24
2018-08-25T21:02:54.801Z,60.85
2018-08-25T21:05:58.124Z,60.75
2018-08-25T21:09:01.625Z,60.81
2018-08-25T21:12:05.655Z,61.59
2018-08-25T21:15:08.882Z,62.37
2018-08-25T21:18:12.058Z,61.90
2018-08-25T21:21:15.193Z,61.71
2018-08-25T21:24:18.338Z,62.14
2018-08-25T21:27:21.507Z,62.99
2018-08-25T21:30:25.853Z,62.68
2018-08-25T21:33:29.901Z,63.65
2018-08-25T21:36:57.255Z,64.28
2018-08-25T21:40:00.353Z,63.68
2018-08-25T21:43:03.471Z,63.26
2018-08-25T21:46:06.581Z,63.38
2018-08-25T21:49:09.701Z,63.82
2018-08-25T21:52:28.892Z,64.28
2018-08-25T21:55:35.522Z,64.40
2018-08-25T21:58:38.623Z,64.97
2018-08-25T22:01:42.437Z,64.15
2018-08-25T22:04:48.822Z,64.68
2018-08-25T22:07:51.954Z,64.15
2018-08-25T22:10:55.143Z,64.39
2018-08-25T22:13:58.175Z,64.16
2018-08-25T22:17:02.123Z,62.96
2018-08-25T22:20:06.453Z,64.46
2018-08-25T22:23:09.682Z,65.48
2018-08-25T22:26:13.559Z,64.80
2018-08-25T22:29:16.755Z,65.35
2018-08-25T22:32:19.914Z,64.82
2018-08-25T22:35:23.056Z,64.58
2018-08-25T22:38:26.155Z,64.49
2018-08-25T22:41:29.285Z,64.97
2018-08-25T22:44:32.346Z,65.01
2018-08-25T22:47:35.449Z,64.68
2018-08-25T22:50:38.612Z,64.21
2018-08-25T22:53:41.716Z,65.26
2018-08-25T22:56:44.815Z,65.43
2018-08-25T22:59:47.926Z,64.65
2018-08-25T23:02:51.042Z,65.33
2018-08-25T23:05:54.107Z,64.75
2018-08-25T23:08:57.267Z,65.13
2018-08-25T23:12:00.410Z,66.21
2018-08-25T23:15:10.182Z,65.04
2018-08-25T23:18:13.344Z,64.82
2018-08-25T23:21:16.471Z,65.33
2018-08-25T23:24:19.568Z,65.02
2018-08-25T23:27:22.949Z,65.09
2018-08-25T23:30:26.129Z,65.49
2018-08-25T23:33:29.171Z,65.44
2018-08-25T23:36:32.283Z,65.51
2018-08-25T23:39:35.412Z,65.38
2018-08-25T23:42:38.571Z,65.51
2018-08-25T23:45:41.964Z,65.88
2018-08-25T23:48:45.064Z,66.33
2018-08-25T23:51:48.453Z,66.11
2018-08-25T23:54:51.636Z,65.98
2018-08-25T23:57:54.752Z,67.38
